Time;durP1;ratioP1;P1;durP2;ratioP2;P2;SDS_P1;SDS_P2;PMS_P1;PMS_P2;Temp;Humidity;BMP_temperature;BMP_pressure;BME280_temperature;BME280_humidity;BME280_pressure;Samples;Min_cycle;Max_cycle;Signal;HPM_P1;HPM_P2
2023/07/23 00:02:03;;;;;;;2.20;2.10;;;15.40;99.90;;;;;;5125061;27;20453;-75
2023/07/23 00:04:30;;;;;;;1.57;1.47;;;15.40;99.90;;;;;;5123554;27;20442;-76
2023/07/23 00:06:57;;;;;;;1.80;1.70;;;15.40;99.90;;;;;;5119099;27;20533;-77
2023/07/23 00:09:24;;;;;;;2.03;1.83;;;15.40;99.90;;;;;;5123707;27;20485;-76
2023/07/23 00:11:53;;;;;;;1.93;1.80;;;15.50;99.90;;;;;;5120880;27;20494;-78
2023/07/23 00:14:21;;;;;;;3.03;2.10;;;15.60;99.90;;;;;;5126219;27;20540;-77
2023/07/23 00:16:49;;;;;;;1.73;1.60;;;15.60;99.90;;;;;;5124421;27;21051;-77
2023/07/23 00:19:19;;;;;;;3.10;1.67;;;15.40;99.90;;;;;;5118832;27;20451;-77
2023/07/23 00:21:47;;;;;;;2.10;1.93;;;15.50;99.90;;;;;;5116042;27;20476;-76
2023/07/23 00:24:14;;;;;;;3.73;1.67;;;15.30;99.90;;;;;;5118279;27;20474;-75
2023/07/23 00:26:41;;;;;;;2.43;1.20;;;15.10;99.90;;;;;;5134705;27;20446;-77
2023/07/23 00:29:08;;;;;;;1.63;1.40;;;15.10;99.90;;;;;;5124229;27;20830;-76
2023/07/23 00:31:36;;;;;;;4.83;1.73;;;15.00;99.90;;;;;;5126420;27;20879;-75
2023/07/23 00:34:04;;;;;;;2.13;1.67;;;15.10;99.90;;;;;;5122735;27;20559;-77
2023/07/23 00:36:31;;;;;;;2.27;2.07;;;15.00;99.90;;;;;;5120067;27;20508;-76
2023/07/23 00:38:58;;;;;;;2.30;1.90;;;15.10;99.90;;;;;;5126352;27;21254;-77
2023/07/23 00:41:25;;;;;;;2.20;2.00;;;15.20;99.90;;;;;;5123726;27;20489;-76
2023/07/23 00:43:52;;;;;;;2.10;1.90;;;15.30;99.90;;;;;;5127919;27;20474;-75
2023/07/23 00:46:19;;;;;;;3.57;1.17;;;15.40;99.90;;;;;;5119617;27;20888;-77
2023/07/23 00:48:47;;;;;;;2.07;1.63;;;15.50;99.90;;;;;;5122799;27;21116;-75
2023/07/23 00:51:14;;;;;;;2.07;1.90;;;15.50;99.90;;;;;;5126537;27;20514;-77
2023/07/23 00:53:42;;;;;;;1.57;1.17;;;15.40;99.90;;;;;;5122716;27;20939;-76
2023/07/23 00:56:09;;;;;;;2.17;1.30;;;15.40;99.90;;;;;;5122715;27;20510;-76
2023/07/23 00:58:36;;;;;;;2.40;1.20;;;15.40;99.90;;;;;;5116136;27;20494;-77
2023/07/23 01:01:03;;;;;;;1.47;1.10;;;15.20;99.90;;;;;;5122036;27;20438;-79
2023/07/23 01:03:30;;;;;;;1.93;1.73;;;15.10;99.90;;;;;;5123901;27;20470;-79
2023/07/23 01:06:03;;;;;;;1.53;1.30;;;15.00;99.90;;;;;;5120491;27;20484;-76
2023/07/23 01:08:30;;;;;;;1.97;1.60;;;14.90;99.90;;;;;;5120224;27;20504;-78
2023/07/23 01:10:57;;;;;;;2.90;1.17;;;14.80;99.90;;;;;;5124533;27;21259;-77
2023/07/23 01:13:24;;;;;;;3.40;1.30;;;14.70;99.90;;;;;;5124822;27;20544;-76
2023/07/23 01:15:53;;;;;;;2.87;2.20;;;14.70;99.90;;;;;;5125892;27;20514;-77
2023/07/23 01:18:21;;;;;;;2.70;1.73;;;14.60;99.90;;;;;;5124876;27;20457;-75
2023/07/23 01:20:48;;;;;;;3.97;2.37;;;14.60;99.90;;;;;;5121194;27;20955;-77
2023/07/23 01:23:16;;;;;;;1.20;1.10;;;14.50;99.90;;;;;;5125394;27;20520;-77
2023/07/23 01:25:43;;;;;;;2.27;1.87;;;14.30;99.90;;;;;;5123766;27;20487;-76
2023/07/23 01:28:10;;;;;;;1.70;1.60;;;14.30;99.90;;;;;;5119919;27;20505;-75
2023/07/23 01:30:37;;;;;;;2.13;1.53;;;14.20;99.90;;;;;;5119161;27;20486;-78
2023/07/23 01:33:05;;;;;;;2.03;1.60;;;14.20;99.90;;;;;;5122042;27;20473;-75
2023/07/23 01:35:32;;;;;;;2.93;2.13;;;14.20;99.90;;;;;;5125244;27;20529;-78
2023/07/23 01:38:01;;;;;;;1.63;1.17;;;14.20;99.90;;;;;;5126002;27;20494;-77
2023/07/23 01:40:29;;;;;;;1.93;1.83;;;14.30;99.90;;;;;;5130210;27;20461;-76
2023/07/23 01:42:57;;;;;;;3.00;2.80;;;14.40;99.90;;;;;;5125017;27;20517;-79
2023/07/23 01:45:23;;;;;;;1.60;1.37;;;14.60;99.90;;;;;;5127658;27;21123;-75
2023/07/23 01:47:50;;;;;;;4.63;1.90;;;14.60;99.90;;;;;;5132436;27;20596;-78
2023/07/23 01:50:17;;;;;;;2.33;1.60;;;14.50;99.90;;;;;;5139640;27;20443;-77
2023/07/23 01:52:44;;;;;;;5.80;1.97;;;14.40;99.90;;;;;;5132958;27;20445;-75
2023/07/23 01:55:11;;;;;;;2.47;2.27;;;14.30;99.90;;;;;;5132035;27;21211;-76
2023/07/23 01:57:40;;;;;;;2.83;1.63;;;14.30;99.90;;;;;;5131110;27;20542;-77
2023/07/23 02:00:08;;;;;;;1.83;1.67;;;14.30;99.90;;;;;;5132630;27;20502;-77
2023/07/23 02:02:35;;;;;;;2.60;1.10;;;14.20;99.90;;;;;;5126414;27;20548;-77
2023/07/23 02:05:03;;;;;;;1.90;1.47;;;14.10;99.90;;;;;;5124648;27;20531;-76
2023/07/23 02:07:30;;;;;;;1.60;1.20;;;14.10;99.90;;;;;;5122379;27;20454;-76
2023/07/23 02:09:56;;;;;;;1.70;1.40;;;14.10;99.90;;;;;;5133213;27;20632;-76
2023/07/23 02:12:23;;;;;;;1.40;1.30;;;14.10;99.90;;;;;;5128866;27;20453;-78
2023/07/23 02:14:52;;;;;;;2.30;1.50;;;14.20;99.90;;;;;;5127759;27;21027;-78
2023/07/23 02:17:19;;;;;;;2.93;1.37;;;14.10;99.90;;;;;;5127810;27;20881;-75
2023/07/23 02:19:46;;;;;;;1.57;1.20;;;14.20;99.90;;;;;;5120466;27;20474;-76
2023/07/23 02:22:13;;;;;;;2.53;1.57;;;14.20;99.90;;;;;;5130530;27;20476;-77
2023/07/23 02:24:40;;;;;;;1.70;1.50;;;14.10;99.90;;;;;;5129829;27;20495;-75
2023/07/23 02:27:07;;;;;;;1.93;1.70;;;14.00;99.90;;;;;;5132909;27;20533;-78
2023/07/23 02:29:35;;;;;;;3.20;1.83;;;14.00;99.90;;;;;;5132165;27;20813;-77
2023/07/23 02:32:04;;;;;;;1.60;1.23;;;14.10;99.90;;;;;;5134057;27;20481;-76
2023/07/23 02:34:32;;;;;;;2.47;2.23;;;14.00;99.90;;;;;;5131041;27;20446;-78
2023/07/23 02:36:59;;;;;;;2.33;1.30;;;14.00;99.90;;;;;;5127168;27;20557;-77
2023/07/23 02:39:27;;;;;;;1.80;1.70;;;14.00;99.90;;;;;;5133536;27;20535;-77
2023/07/23 02:41:54;;;;;;;1.07;0.97;;;13.80;99.90;;;;;;5134120;27;20489;-76
2023/07/23 02:44:21;;;;;;;2.17;1.33;;;13.80;99.90;;;;;;5132529;27;20477;-76
2023/07/23 02:46:48;;;;;;;1.33;1.23;;;13.70;99.90;;;;;;5124530;27;20881;-75
2023/07/23 02:49:16;;;;;;;2.33;1.73;;;13.70;99.90;;;;;;5127314;27;20470;-76
2023/07/23 02:51:43;;;;;;;1.50;1.40;;;13.70;99.90;;;;;;5128745;27;20469;-77
2023/07/23 02:54:10;;;;;;;3.97;2.40;;;13.70;99.90;;;;;;5130526;27;20481;-75
2023/07/23 02:56:37;;;;;;;1.90;1.53;;;13.70;99.90;;;;;;5126059;27;20586;-77
2023/07/23 02:59:04;;;;;;;2.90;2.20;;;13.70;99.90;;;;;;5126007;27;20481;-77
2023/07/23 03:01:31;;;;;;;2.17;1.73;;;13.80;99.90;;;;;;5130197;27;20458;-76
2023/07/23 03:03:58;;;;;;;5.33;1.83;;;13.80;99.90;;;;;;5130118;27;20499;-77
2023/07/23 03:06:28;;;;;;;2.70;1.80;;;13.80;99.90;;;;;;5125214;27;20462;-76
2023/07/23 03:08:55;;;;;;;2.83;1.87;;;13.90;99.90;;;;;;5130946;27;20442;-76
2023/07/23 03:11:22;;;;;;;2.53;1.40;;;13.80;99.90;;;;;;5128760;27;20454;-76
2023/07/23 03:13:48;;;;;;;2.03;1.50;;;13.80;99.90;;;;;;5116801;27;20466;-76
2023/07/23 03:16:15;;;;;;;1.53;1.43;;;13.90;99.90;;;;;;5122334;27;20516;-78
2023/07/23 03:18:42;;;;;;;1.90;1.80;;;13.70;99.90;;;;;;5122057;27;20997;-77
2023/07/23 03:21:09;;;;;;;2.23;1.33;;;13.60;99.90;;;;;;5119358;27;20447;-76
2023/07/23 03:23:38;;;;;;;2.57;1.40;;;13.70;99.90;;;;;;5124229;27;20457;-78
2023/07/23 03:26:04;;;;;;;3.07;2.10;;;13.70;99.90;;;;;;5129094;27;20454;-77
2023/07/23 03:28:31;;;;;;;1.40;1.30;;;13.60;99.90;;;;;;5128117;27;20502;-76
2023/07/23 03:30:59;;;;;;;1.87;1.67;;;13.60;99.90;;;;;;5129165;27;20488;-77
2023/07/23 03:33:27;;;;;;;4.30;1.10;;;13.50;99.90;;;;;;5127961;27;20489;-75
2023/07/23 03:35:53;;;;;;;2.63;1.87;;;13.50;99.90;;;;;;5119297;27;20500;-77
2023/07/23 03:38:20;;;;;;;4.37;1.90;;;13.70;99.90;;;;;;5125616;27;20477;-77
2023/07/23 03:40:49;;;;;;;2.00;1.13;;;13.60;99.90;;;;;;5128592;27;20470;-77
2023/07/23 03:43:16;;;;;;;1.30;1.20;;;13.60;99.90;;;;;;5126148;27;20457;-76
2023/07/23 03:45:43;;;;;;;5.73;2.03;;;13.60;99.90;;;;;;5129438;27;20442;-76
2023/07/23 03:48:10;;;;;;;1.60;1.50;;;13.50;99.90;;;;;;5124590;27;20886;-77
2023/07/23 03:50:38;;;;;;;2.07;1.60;;;13.60;99.90;;;;;;5128906;27;20481;-77
2023/07/23 03:53:04;;;;;;;1.90;1.57;;;13.60;99.90;;;;;;5129424;27;20446;-78
2023/07/23 03:55:33;;;;;;;3.33;2.00;;;13.70;99.90;;;;;;5126523;27;21158;-78
2023/07/23 03:58:01;;;;;;;2.17;1.00;;;13.70;99.90;;;;;;5127531;27;20510;-78
2023/07/23 04:00:28;;;;;;;2.20;1.43;;;13.80;99.90;;;;;;5126037;27;20450;-76
2023/07/23 04:02:55;;;;;;;1.60;1.33;;;13.80;99.90;;;;;;5122077;27;20983;-76
2023/07/23 04:05:22;;;;;;;4.00;1.20;;;13.80;99.90;;;;;;5128871;27;20593;-78
2023/07/23 04:07:49;;;;;;;1.53;1.20;;;13.80;99.90;;;;;;5127082;27;20511;-78
2023/07/23 04:10:16;;;;;;;2.60;1.33;;;14.00;99.90;;;;;;5125039;27;20466;-77
2023/07/23 04:12:43;;;;;;;1.57;1.40;;;14.20;99.90;;;;;;5121771;27;20626;-75
2023/07/23 04:15:11;;;;;;;1.80;1.37;;;14.30;99.90;;;;;;5128854;27;20510;-78
2023/07/23 04:17:38;;;;;;;1.87;1.30;;;14.30;99.90;;;;;;5126361;27;20579;-75
2023/07/23 04:20:06;;;;;;;1.73;1.33;;;14.30;99.90;;;;;;5128912;27;20920;-77
2023/07/23 04:22:33;;;;;;;1.93;1.83;;;14.40;99.90;;;;;;5111758;27;20543;-75
2023/07/23 04:25:00;;;;;;;2.00;1.50;;;14.40;99.90;;;;;;5123064;27;20534;-75
2023/07/23 04:27:27;;;;;;;2.43;1.60;;;14.40;99.90;;;;;;5126726;27;20482;-76
2023/07/23 04:29:54;;;;;;;2.30;1.43;;;14.60;99.90;;;;;;5126211;27;20466;-76
2023/07/23 04:32:23;;;;;;;2.30;2.10;;;14.60;99.90;;;;;;5128342;27;20483;-76
2023/07/23 04:34:49;;;;;;;4.40;1.80;;;14.60;99.90;;;;;;5133567;27;20449;-77
2023/07/23 04:37:16;;;;;;;1.53;1.30;;;14.70;99.90;;;;;;5129346;27;20483;-75
2023/07/23 04:39:43;;;;;;;2.73;1.43;;;14.90;99.90;;;;;;5132765;27;20473;-78
2023/07/23 04:42:12;;;;;;;2.50;2.30;;;14.90;99.90;;;;;;5126087;27;20495;-78
2023/07/23 04:44:39;;;;;;;2.27;2.07;;;15.00;99.90;;;;;;5126697;27;20468;-76
2023/07/23 04:47:06;;;;;;;1.40;1.13;;;15.10;99.90;;;;;;5126041;27;20481;-75
2023/07/23 04:49:34;;;;;;;1.70;1.20;;;15.10;99.90;;;;;;5110092;27;20452;-75
2023/07/23 04:52:02;;;;;;;1.73;1.47;;;15.10;99.90;;;;;;5111238;27;20457;-75
2023/07/23 04:54:29;;;;;;;3.50;2.60;;;15.30;99.90;;;;;;5115484;27;20474;-75
2023/07/23 04:56:56;;;;;;;1.53;1.43;;;15.40;99.90;;;;;;5125496;27;20537;-76
2023/07/23 04:59:23;;;;;;;3.30;2.00;;;15.50;99.90;;;;;;5117389;27;20505;-77
2023/07/23 05:01:50;;;;;;;2.07;1.60;;;15.70;99.90;;;;;;5115710;27;21017;-76
2023/07/23 05:04:17;;;;;;;2.60;1.50;;;15.80;99.90;;;;;;5122358;27;20489;-77
2023/07/23 05:06:45;;;;;;;2.00;1.10;;;15.90;99.90;;;;;;5124671;27;20443;-79
2023/07/23 05:09:12;;;;;;;2.80;1.40;;;15.90;99.90;;;;;;5108418;27;20480;-78
2023/07/23 05:11:42;;;;;;;2.20;0.90;;;16.00;99.90;;;;;;5118408;27;20489;-76
2023/07/23 05:14:09;;;;;;;2.20;1.27;;;16.20;99.90;;;;;;5120339;27;20976;-77
2023/07/23 05:16:36;;;;;;;1.43;1.23;;;16.40;99.90;;;;;;5115262;27;20538;-77
2023/07/23 05:19:03;;;;;;;3.37;1.73;;;16.60;99.90;;;;;;5118108;27;20466;-77
2023/07/23 05:21:34;;;;;;;2.40;1.00;;;16.70;99.90;;;;;;5105340;27;20459;-77
2023/07/23 05:24:02;;;;;;;2.97;1.47;;;16.70;99.90;;;;;;5120968;27;20435;-78
2023/07/23 05:26:29;;;;;;;2.20;1.20;;;16.70;99.90;;;;;;5122662;27;21130;-75
2023/07/23 05:28:56;;;;;;;1.57;1.13;;;16.80;99.90;;;;;;5116261;27;20521;-76
2023/07/23 05:31:23;;;;;;;2.17;1.97;;;17.00;99.90;;;;;;5117735;27;20486;-78
2023/07/23 05:33:50;;;;;;;2.67;2.30;;;17.10;99.90;;;;;;5122664;28;20463;-78
2023/07/23 05:36:17;;;;;;;1.43;1.23;;;17.10;99.90;;;;;;5120235;28;20445;-75
2023/07/23 05:38:44;;;;;;;2.67;1.80;;;17.40;99.90;;;;;;5118924;28;20924;-75
2023/07/23 05:41:12;;;;;;;1.50;1.30;;;17.30;99.90;;;;;;5120919;28;20458;-77
2023/07/23 05:43:39;;;;;;;3.20;1.93;;;17.30;99.90;;;;;;5126369;28;20537;-76
2023/07/23 05:46:06;;;;;;;1.53;1.30;;;17.50;99.90;;;;;;5110494;27;21177;-78
2023/07/23 05:48:33;;;;;;;2.73;2.13;;;17.60;99.90;;;;;;5120074;28;20605;-77
2023/07/23 05:51:00;;;;;;;1.40;1.20;;;17.60;99.90;;;;;;5119518;27;20475;-77
2023/07/23 05:53:27;;;;;;;1.17;1.07;;;17.70;99.90;;;;;;5125458;27;20518;-77
2023/07/23 05:55:54;;;;;;;3.67;1.20;;;17.70;99.90;;;;;;5124688;27;20913;-78
2023/07/23 05:58:22;;;;;;;2.50;1.30;;;18.00;99.90;;;;;;5121955;28;20757;-76
2023/07/23 06:00:49;;;;;;;1.27;0.90;;;17.80;99.90;;;;;;5120479;28;20462;-76
2023/07/23 06:03:16;;;;;;;1.57;1.13;;;17.80;99.90;;;;;;5122739;27;20482;-77
2023/07/23 06:05:44;;;;;;;1.73;1.63;;;17.90;99.90;;;;;;5120379;28;20522;-76
2023/07/23 06:08:11;;;;;;;1.53;0.90;;;18.10;99.90;;;;;;5114942;28;20458;-76
2023/07/23 06:10:38;;;;;;;1.17;1.07;;;18.50;99.90;;;;;;5116100;27;20892;-77
2023/07/23 06:13:05;;;;;;;4.63;1.80;;;18.60;99.90;;;;;;5124958;27;20440;-74
2023/07/23 06:15:33;;;;;;;3.80;1.20;;;18.60;99.90;;;;;;5113616;27;20470;-78
2023/07/23 06:18:00;;;;;;;1.93;1.33;;;18.70;99.90;;;;;;5112943;27;20584;-76
2023/07/23 06:20:27;;;;;;;1.30;1.20;;;18.80;99.90;;;;;;5116674;28;20964;-76
2023/07/23 06:22:54;;;;;;;3.03;1.70;;;19.10;99.90;;;;;;5118701;27;20985;-76
2023/07/23 06:25:21;;;;;;;2.93;2.03;;;19.30;99.90;;;;;;5121383;27;20457;-76
2023/07/23 06:27:48;;;;;;;2.80;1.47;;;19.40;99.90;;;;;;5128120;27;20925;-77
2023/07/23 06:30:15;;;;;;;3.30;2.03;;;19.60;99.90;;;;;;5128145;27;20449;-76
2023/07/23 06:32:44;;;;;;;1.93;1.07;;;19.60;99.90;;;;;;5121402;27;20469;-76
2023/07/23 06:35:11;;;;;;;1.27;1.10;;;19.90;99.90;;;;;;5124874;27;20461;-76
2023/07/23 06:37:40;;;;;;;1.47;1.20;;;20.00;99.90;;;;;;5129992;27;20518;-76
2023/07/23 06:40:09;;;;;;;2.50;1.37;;;20.00;99.90;;;;;;5128797;27;20931;-76
2023/07/23 06:42:36;;;;;;;1.10;1.00;;;19.80;99.90;;;;;;5127658;27;20485;-76
2023/07/23 06:45:03;;;;;;;2.37;2.17;;;19.70;99.90;;;;;;5127318;27;21198;-76
2023/07/23 06:47:30;;;;;;;2.70;2.50;;;20.00;99.90;;;;;;5127203;27;20457;-78
2023/07/23 06:49:59;;;;;;;2.10;1.53;;;20.10;99.90;;;;;;5126070;27;20541;-79
2023/07/23 06:52:25;;;;;;;1.87;1.63;;;20.30;99.90;;;;;;5128635;27;20454;-75
2023/07/23 06:54:53;;;;;;;1.67;1.57;;;20.30;99.90;;;;;;5129475;27;20476;-76
2023/07/23 06:57:19;;;;;;;1.60;1.50;;;20.50;99.90;;;;;;5129937;27;20577;-76
2023/07/23 06:59:48;;;;;;;2.90;1.43;;;20.70;99.90;;;;;;5124696;27;20479;-76
2023/07/23 07:02:15;;;;;;;1.83;1.60;;;20.60;99.90;;;;;;5128941;27;20562;-76
2023/07/23 07:04:43;;;;;;;2.30;1.50;;;20.70;99.90;;;;;;5130108;27;20576;-75
2023/07/23 07:07:11;;;;;;;1.00;0.90;;;20.50;99.90;;;;;;5127018;27;20494;-79
2023/07/23 07:09:38;;;;;;;1.47;1.37;;;20.10;99.90;;;;;;5125882;27;20995;-75
2023/07/23 07:12:06;;;;;;;2.60;1.70;;;20.30;99.90;;;;;;5124669;27;20445;-77
2023/07/23 07:14:33;;;;;;;2.53;1.63;;;20.60;99.90;;;;;;5123747;27;20486;-76
2023/07/23 07:16:59;;;;;;;1.23;1.07;;;21.10;99.90;;;;;;5115155;27;20539;-79
2023/07/23 07:19:26;;;;;;;2.20;1.47;;;21.00;99.90;;;;;;5127474;27;20463;-77
2023/07/23 07:21:54;;;;;;;1.30;1.20;;;21.10;99.90;;;;;;5115468;27;21565;-76
2023/07/23 07:24:22;;;;;;;2.60;2.10;;;21.20;99.90;;;;;;5146801;27;20496;-77
2023/07/23 07:26:49;;;;;;;1.97;1.83;;;21.40;99.90;;;;;;5136553;27;20441;-76
2023/07/23 07:29:16;;;;;;;2.90;1.90;;;21.50;99.90;;;;;;5121570;27;20489;-77
2023/07/23 07:31:43;;;;;;;1.90;1.50;;;21.80;99.90;;;;;;5133272;27;20502;-78
2023/07/23 07:34:10;;;;;;;2.27;2.00;;;21.70;99.90;;;;;;5129468;27;20547;-76
2023/07/23 07:36:38;;;;;;;1.80;1.60;;;21.60;99.90;;;;;;5127448;27;20637;-76
2023/07/23 07:39:05;;;;;;;3.00;1.67;;;21.80;99.90;;;;;;5128892;27;20478;-77
2023/07/23 07:41:34;;;;;;;1.70;1.53;;;21.90;99.90;;;;;;5125189;27;20574;-77
2023/07/23 07:44:01;;;;;;;2.13;1.87;;;21.90;99.90;;;;;;5127315;27;20484;-77
2023/07/23 07:46:28;;;;;;;8.40;1.40;;;21.60;99.90;;;;;;5123651;27;20834;-77
2023/07/23 07:48:55;;;;;;;2.63;1.77;;;22.00;99.90;;;;;;5126262;27;20547;-77
2023/07/23 07:51:21;;;;;;;2.57;1.73;;;22.10;99.90;;;;;;5126078;27;20449;-80
2023/07/23 07:53:48;;;;;;;2.13;1.90;;;22.50;99.90;;;;;;5118174;27;20563;-78
2023/07/23 07:56:17;;;;;;;2.60;1.50;;;23.00;99.90;;;;;;5121689;27;21014;-79
2023/07/23 07:58:46;;;;;;;4.23;2.03;;;22.70;99.90;;;;;;5124682;27;21180;-76
2023/07/23 08:01:14;;;;;;;1.30;1.10;;;22.90;99.90;;;;;;5113580;27;21035;-80
2023/07/23 08:03:42;;;;;;;8.23;1.67;;;23.50;99.90;;;;;;5115972;27;20471;-81
2023/07/23 08:06:11;;;;;;;1.53;1.43;;;23.30;99.90;;;;;;5128268;27;20861;-76
2023/07/23 08:08:39;;;;;;;1.43;1.33;;;23.00;99.90;;;;;;5111671;27;20508;-77
2023/07/23 08:11:08;;;;;;;1.67;1.43;;;23.00;99.90;;;;;;5121688;27;20993;-76
2023/07/23 08:13:37;;;;;;;1.73;1.20;;;23.20;99.90;;;;;;5117260;27;20546;-78
2023/07/23 08:16:07;;;;;;;2.17;1.80;;;23.10;99.80;;;;;;5121499;27;20455;-80
2023/07/23 08:18:35;;;;;;;2.00;1.87;;;23.40;99.90;;;;;;5116768;27;20479;-80
2023/07/23 08:21:02;;;;;;;1.03;1.00;;;23.80;99.90;;;;;;5123805;27;20449;-78
2023/07/23 08:23:30;;;;;;;1.57;1.47;;;24.10;99.90;;;;;;5123534;27;20450;-79
2023/07/23 08:25:58;;;;;;;1.70;1.60;;;24.10;98.10;;;;;;5117665;27;20495;-76
2023/07/23 08:28:29;;;;;;;0.97;0.93;;;24.20;97.90;;;;;;5121182;27;20565;-76
2023/07/23 08:30:56;;;;;;;2.30;1.33;;;24.20;97.00;;;;;;5124023;27;20467;-77
2023/07/23 08:33:28;;;;;;;3.10;2.00;;;24.50;96.90;;;;;;5115937;27;20539;-75
2023/07/23 08:35:55;;;;;;;1.47;1.37;;;24.60;98.80;;;;;;5120014;27;20531;-79
2023/07/23 08:38:23;;;;;;;2.50;1.47;;;24.70;98.00;;;;;;5118970;27;20772;-76
2023/07/23 08:40:57;;;;;;;2.40;1.30;;;25.30;96.30;;;;;;5118678;27;20442;-76
2023/07/23 08:43:49;;;;;;;2.93;1.47;;;25.50;96.90;;;;;;5132570;27;20497;-77
2023/07/23 08:46:23;;;;;;;1.63;1.53;;;25.00;93.80;;;;;;5127912;28;20449;-76
2023/07/23 08:49:04;;;;;;;1.03;0.93;;;24.80;95.40;;;;;;5119665;27;20469;-79
2023/07/23 08:51:40;;;;;;;1.80;1.17;;;25.00;95.60;;;;;;5121175;27;20461;-77
2023/07/23 08:54:08;;;;;;;1.50;1.20;;;25.00;94.10;;;;;;5123144;27;20999;-80
2023/07/23 08:56:36;;;;;;;1.67;1.50;;;25.20;93.00;;;;;;5127923;27;20446;-81
2023/07/23 08:59:04;;;;;;;1.57;1.33;;;25.30;93.20;;;;;;5120280;27;20527;-77
2023/07/23 09:01:34;;;;;;;1.20;1.10;;;25.40;92.70;;;;;;5111715;27;20547;-77
2023/07/23 09:04:04;;;;;;;1.47;1.37;;;25.60;92.30;;;;;;5111738;27;20439;-80
2023/07/23 09:06:31;;;;;;;2.07;1.40;;;25.70;91.70;;;;;;5119205;27;20493;-77
2023/07/23 09:09:06;;;;;;;1.97;1.57;;;25.90;91.70;;;;;;5118472;27;20492;-77
2023/07/23 09:11:34;;;;;;;1.73;1.63;;;25.90;92.90;;;;;;5109159;27;20582;-77
2023/07/23 09:14:02;;;;;;;1.87;1.27;;;26.10;91.60;;;;;;5114756;27;20498;-78
2023/07/23 09:16:29;;;;;;;1.87;1.77;;;26.10;91.50;;;;;;5112700;27;20502;-79
2023/07/23 09:18:56;;;;;;;1.70;1.20;;;26.00;93.30;;;;;;5117061;27;20562;-77
2023/07/23 09:21:26;;;;;;;1.73;1.00;;;26.20;92.00;;;;;;5117091;27;20452;-76
2023/07/23 09:23:53;;;;;;;1.10;1.00;;;26.50;92.90;;;;;;5124631;27;20458;-79
2023/07/23 09:26:22;;;;;;;3.30;1.40;;;26.60;89.40;;;;;;5117910;27;20541;-77
2023/07/23 09:28:51;;;;;;;1.40;1.30;;;26.40;88.40;;;;;;5123487;27;20477;-77
2023/07/23 09:31:26;;;;;;;1.47;1.37;;;26.10;89.40;;;;;;5127177;27;20448;-81
2023/07/23 09:33:57;;;;;;;1.10;1.00;;;26.00;87.10;;;;;;5122953;27;20542;-78
2023/07/23 09:36:26;;;;;;;1.50;1.20;;;26.60;85.30;;;;;;5127260;27;20486;-77
2023/07/23 09:38:55;;;;;;;1.20;1.10;;;26.60;85.20;;;;;;5126894;28;20485;-78
2023/07/23 09:41:22;;;;;;;1.00;0.90;;;26.60;79.90;;;;;;5127636;28;20455;-78
2023/07/23 09:43:50;;;;;;;1.47;1.00;;;27.20;79.30;;;;;;5127491;27;20443;-80
2023/07/23 09:46:17;;;;;;;3.43;1.90;;;27.50;77.80;;;;;;5121831;28;20471;-81
2023/07/23 09:48:49;;;;;;;1.30;1.20;;;27.30;76.00;;;;;;5122983;28;20499;-78
2023/07/23 09:51:16;;;;;;;1.20;1.10;;;27.20;74.10;;;;;;5127134;27;20493;-78
2023/07/23 09:53:45;;;;;;;1.40;1.30;;;27.30;78.50;;;;;;5127526;27;20440;-78
2023/07/23 09:56:13;;;;;;;1.73;1.00;;;27.50;77.50;;;;;;5124961;27;20455;-81
2023/07/23 09:58:43;;;;;;;1.90;1.50;;;27.60;79.70;;;;;;5131180;27;20532;-79
2023/07/23 10:01:10;;;;;;;1.50;1.10;;;27.60;78.30;;;;;;5131971;27;20443;-78
2023/07/23 10:03:38;;;;;;;1.73;1.63;;;27.70;78.70;;;;;;5135159;27;20959;-79
2023/07/23 10:06:10;;;;;;;1.50;1.03;;;27.70;74.60;;;;;;5143450;27;20534;-77
2023/07/23 10:08:39;;;;;;;1.13;0.90;;;27.90;69.70;;;;;;5135889;27;20467;-78
2023/07/23 10:11:08;;;;;;;5.83;1.37;;;27.90;68.50;;;;;;5135692;27;20812;-77
2023/07/23 10:13:36;;;;;;;1.50;1.27;;;27.80;67.30;;;;;;5120189;27;20440;-78
2023/07/23 10:16:06;;;;;;;1.00;0.90;;;28.00;67.70;;;;;;5130648;27;20453;-78
2023/07/23 10:18:35;;;;;;;2.50;1.57;;;28.00;69.10;;;;;;5129432;27;20687;-78
2023/07/23 10:21:04;;;;;;;1.03;0.80;;;28.20;64.90;;;;;;5123457;27;20436;-81
2023/07/23 10:23:31;;;;;;;1.17;1.07;;;28.30;65.10;;;;;;5120584;27;20526;-79
2023/07/23 10:26:25;;;;;;;4.13;1.37;;;28.20;63.80;;;;;;5125035;27;20945;-78
2023/07/23 10:28:56;;;;;;;1.20;1.10;;;28.20;63.60;;;;;;5123563;27;20507;-79
2023/07/23 10:31:25;;;;;;;3.90;1.30;;;28.20;62.10;;;;;;5122513;27;20518;-78
2023/07/23 10:33:53;;;;;;;1.03;0.87;;;28.20;64.60;;;;;;5123074;27;20879;-79
2023/07/23 10:36:22;;;;;;;4.90;2.43;;;28.50;56.70;;;;;;5131581;27;20549;-78
2023/07/23 10:39:06;;;;;;;2.23;1.67;;;28.40;54.60;;;;;;5130176;27;20986;-79
2023/07/23 10:41:50;;;;;;;0.90;0.70;;;28.30;55.90;;;;;;5123181;27;20452;-77
2023/07/23 10:44:24;;;;;;;0.80;0.80;;;28.20;54.80;;;;;;5127636;27;20959;-77
2023/07/23 10:46:51;;;;;;;1.20;1.10;;;28.50;57.80;;;;;;5116370;27;20545;-77
2023/07/23 10:49:22;;;;;;;1.40;0.80;;;28.40;55.50;;;;;;5126906;27;20497;-77
2023/07/23 10:51:50;;;;;;;1.23;1.10;;;28.40;55.90;;;;;;5129418;27;20560;-80
2023/07/23 10:54:19;;;;;;;1.40;1.30;;;28.50;54.60;;;;;;5130521;27;20454;-76
2023/07/23 10:56:47;;;;;;;1.10;0.80;;;28.70;54.70;;;;;;5130343;27;20463;-77
2023/07/23 10:59:17;;;;;;;1.13;1.03;;;28.90;50.20;;;;;;5129699;27;20576;-77
2023/07/23 11:01:45;;;;;;;1.03;0.93;;;28.60;50.50;;;;;;5126143;27;20445;-79
2023/07/23 11:04:14;;;;;;;1.17;0.90;;;29.00;51.70;;;;;;5129985;27;20732;-77
2023/07/23 11:06:55;;;;;;;1.43;0.87;;;29.10;52.40;;;;;;5129728;27;20449;-77
2023/07/23 11:09:26;;;;;;;1.20;1.10;;;29.00;46.00;;;;;;5128041;27;20495;-77
2023/07/23 11:11:54;;;;;;;1.27;0.90;;;28.80;45.90;;;;;;5126488;27;20454;-79
2023/07/23 11:14:24;;;;;;;1.57;1.03;;;28.70;44.80;;;;;;5124097;27;20468;-77
2023/07/23 11:16:52;;;;;;;1.57;0.80;;;28.60;47.20;;;;;;5129385;27;20445;-78
2023/07/23 11:19:20;;;;;;;1.20;0.97;;;28.60;45.30;;;;;;5127662;27;20491;-80
2023/07/23 11:21:49;;;;;;;1.43;0.90;;;28.80;46.00;;;;;;5128567;27;20457;-80
2023/07/23 11:24:17;;;;;;;1.50;1.00;;;28.70;46.50;;;;;;5130672;27;20476;-77
2023/07/23 11:26:44;;;;;;;1.13;1.00;;;28.70;48.00;;;;;;5128584;27;20459;-77
2023/07/23 11:29:12;;;;;;;1.73;0.90;;;28.60;47.40;;;;;;5136915;27;20480;-77
2023/07/23 11:31:41;;;;;;;1.03;1.00;;;28.70;47.30;;;;;;5146017;27;20432;-77
2023/07/23 11:34:08;;;;;;;1.07;0.90;;;28.50;47.70;;;;;;5118766;27;20488;-78
2023/07/23 11:36:37;;;;;;;2.23;1.83;;;28.70;47.00;;;;;;5134204;27;20443;-78
2023/07/23 11:39:05;;;;;;;1.30;0.93;;;28.70;45.00;;;;;;5127810;27;20487;-78
2023/07/23 11:41:34;;;;;;;2.70;1.00;;;29.00;51.40;;;;;;5117802;27;20799;-76
2023/07/23 11:44:03;;;;;;;1.23;1.07;;;29.00;45.80;;;;;;5130151;27;20454;-77
2023/07/23 11:46:32;;;;;;;1.60;1.50;;;29.10;46.40;;;;;;5121421;27;20494;-76
2023/07/23 11:49:00;;;;;;;1.57;1.27;;;28.90;46.70;;;;;;5121272;27;20543;-77
2023/07/23 11:51:29;;;;;;;1.77;1.30;;;29.00;47.40;;;;;;5129377;27;20444;-79
2023/07/23 11:54:02;;;;;;;1.10;0.80;;;28.70;47.40;;;;;;5127541;27;20491;-77
2023/07/23 11:56:31;;;;;;;3.07;0.80;;;28.80;47.70;;;;;;5127357;27;20457;-77
2023/07/23 11:59:03;;;;;;;1.03;0.93;;;29.00;47.50;;;;;;5129398;27;20489;-76
2023/07/23 12:01:30;;;;;;;1.73;1.20;;;29.10;47.00;;;;;;5124216;27;20453;-76
2023/07/23 12:04:03;;;;;;;0.80;0.80;;;29.00;46.90;;;;;;5126342;27;20474;-77
2023/07/23 12:06:31;;;;;;;1.50;1.03;;;29.50;47.60;;;;;;5126413;27;20549;-77
2023/07/23 12:08:58;;;;;;;1.47;1.07;;;29.60;45.50;;;;;;5125085;27;20505;-77
2023/07/23 12:11:28;;;;;;;2.00;1.70;;;29.50;48.60;;;;;;5112534;27;20506;-77
2023/07/23 12:13:57;;;;;;;2.87;1.20;;;29.50;49.50;;;;;;5111219;27;20473;-77
2023/07/23 12:16:38;;;;;;;5.20;1.13;;;29.40;45.60;;;;;;5113182;27;20438;-78
2023/07/23 12:19:08;;;;;;;1.00;0.80;;;29.40;45.60;;;;;;5125623;27;20892;-80
2023/07/23 12:21:37;;;;;;;1.10;1.00;;;29.70;45.60;;;;;;5111631;27;20461;-77
2023/07/23 12:24:18;;;;;;;1.07;0.97;;;29.80;46.50;;;;;;5124396;27;20469;-77
2023/07/23 12:26:46;;;;;;;1.50;1.27;;;29.80;45.10;;;;;;5115846;27;20539;-77
2023/07/23 12:29:13;;;;;;;1.30;1.20;;;29.90;43.40;;;;;;5117608;27;20473;-77
2023/07/23 12:31:42;;;;;;;2.60;1.50;;;29.90;42.80;;;;;;5107179;28;20447;-77
2023/07/23 12:34:10;;;;;;;1.67;1.00;;;30.00;46.40;;;;;;5116334;27;20442;-77
2023/07/23 12:36:38;;;;;;;1.07;0.97;;;30.00;45.80;;;;;;5116490;27;20457;-77
2023/07/23 12:39:06;;;;;;;1.10;1.00;;;30.10;46.30;;;;;;5121335;27;20631;-78
2023/07/23 12:41:34;;;;;;;1.20;1.10;;;29.80;45.00;;;;;;5114466;27;20482;-77
2023/07/23 12:44:01;;;;;;;1.83;0.90;;;29.70;48.40;;;;;;5117690;27;20476;-77
2023/07/23 12:46:28;;;;;;;1.00;0.90;;;29.90;45.90;;;;;;5118940;27;21034;-77
2023/07/23 12:48:55;;;;;;;0.80;0.80;;;30.00;43.70;;;;;;5125114;27;20561;-79
2023/07/23 12:51:24;;;;;;;1.23;1.13;;;30.10;44.90;;;;;;5129059;27;20446;-77
2023/07/23 12:53:51;;;;;;;1.43;1.03;;;30.10;44.60;;;;;;5149569;27;20437;-77